Latest Coastal Weather Observations for Cape Jaffa

IDS60701

Issued at 3:21 pm CST Monday 2 May 2016 (issued every 10 minutes, with the page automatically refreshed every 10 minutes)

About coastal observations | Map of coastal stations | Coastal observations for SA | Marine services | Other Formats
Station Details ID: 026095 Name: THE LIMESTONE Lat: -36.97 Lon: 139.72 Height: 17.0 m
Data from the previous 72 hours. | See also: Recent months at Cape Jaffa
Date/Time
CST
Temp

°C
Wind Pressure Rain
since 9am
mm
Weather Cloud Vis
km
Sea
Height
m
Swell
Dir
 
Speed
knots
Gust
knots
hPa Trend Height
m
Period
s
Dir
02/03:00pm 16.9 NNW 23 29 1007.0 - 0.2 - - - - - - -
02/02:30pm 16.7 NNW 22 29 1007.2 - 0.2 - - - - - - -
02/02:17pm 16.6 NNW 22 33 1007.2 - 0.2 - - - - - - -
02/02:00pm 17.6 NNW 22 28 1007.4 - 0.2 - - - - - - -
02/01:30pm 17.7 NW 20 28 1007.9 - 0.2 - - - - - - -
02/01:00pm 18.1 NNW 21 26 1008.4 - 0.2 - - - - - - -
02/12:30pm 18.1 NNW 21 28 1008.7 - 0.2 - - - - - - -
02/12:00pm 17.8 NNW 21 29 1009.2 - 0.2 - - - - - - -
02/11:30am 17.3 NNW 23 30 1009.5 - 0.2 - - - - - - -
02/11:00am 16.6 NNW 22 27 1009.7 - 0.2 - - - - - - -
02/10:30am 17.1 NNW 22 31 1010.0 - 0.2 - - - - - - -
02/10:00am 16.6 NW 19 26 1010.1 - 0.2 - - - - - - -
02/09:30am 15.6 NW 18 23 1010.4 - 0.0 - - - - - - -
02/09:27am 15.6 NW 20 31 1010.4 - 0.0 - - - - - - -
02/09:00am 15.9 NNW 19 25 1010.4 - 0.6 - - - - - - -
02/08:30am 15.7 NNW 17 23 1010.7 - 0.6 - - - - - - -
02/08:00am 15.3 NNW 16 23 1010.7 - 0.6 - - - - - - -
02/07:30am 15.1 NNW 18 23 1010.8 - 0.6 - - - - - - -
02/07:00am 14.5 NNW 17 21 1010.9 - 0.6 - - - - - - -
02/06:30am 14.3 NNW 19 24 1010.9 - 0.6 - - - - - - -
02/06:00am 14.6 NW 15 23 1011.2 - 0.6 - - - - - - -
02/05:30am 14.6 NW 15 23 1011.3 - 0.6 - - - - - - -
02/05:00am 14.2 NW 13 18 1011.5 - 0.6 - - - - - - -
02/04:30am 14.3 NW 15 19 1011.8 - 0.6 - - - - - - -
02/04:00am 14.2 NW 14 23 1012.0 - 0.6 - - - - - - -
02/03:30am 14.4 NW 15 20 1012.3 - 0.6 - - - - - - -
02/03:00am 14.4 NW 15 21 1012.6 - 0.6 - - - - - - -
02/02:30am 14.4 NW 12 18 1012.9 - 0.6 - - - - - - -
02/02:00am 14.5 NW 13 18 1013.2 - 0.6 - - - - - - -
02/01:30am 13.6 NW 12 19 1013.6 - 0.6 - - - - - - -
02/01:00am 13.3 NNW 10 13 1013.8 - 0.6 - - - - - - -
02/12:30am 13.7 NW 10 15 1014.1 - 0.6 - - - - - - -
02/12:00am 13.0 WNW 11 16 1014.5 - 0.6 Recent precip. - - - - - -
 
Date/Time
CST
Temp

°C
Wind Pressure Rain
since 9am
mm
Weather Cloud Vis
km
Sea
Height
m
Swell
Dir
 
Speed
knots
Gust
knots
hPa Trend Height
m
Period
s
Dir
01/11:30pm 14.0 NW 12 16 1014.8 - 0.4 - - - - - - -
01/11:00pm 12.9 NW 7 10 1015.2 - 0.4 - - - - - - -
01/10:30pm 12.7 NW 7 9 1015.6 - 0.4 - - - - - - -
01/10:00pm 12.7 WNW 16 24 1016.1 - 0.4 - - - - - - -
01/09:51pm 13.1 NW 12 24 1016.0 - 0.4 - - - - - - -
01/09:30pm 12.6 NW 6 7 1016.2 - 0.4 - - - - - - -
01/09:00pm 13.5 NW 10 14 1016.3 - 0.4 - - - - - - -
01/08:30pm 13.3 NW 9 11 1016.2 - 0.4 - - - - - - -
01/08:00pm 13.2 NW 5 7 1016.1 - 0.4 - - - - - - -
01/07:30pm 12.9 NW 4 6 1016.1 - 0.4 - - - - - - -
01/07:00pm 13.2 WNW 7 10 1016.1 - 0.4 - - - - - - -
01/06:30pm 12.9 WNW 5 7 1016.0 - 0.4 - - - - - - -
01/06:00pm 12.9 W 6 7 1015.9 - 0.4 - - - - - - -
01/05:30pm 13.8 W 8 10 1015.7 - 0.4 - - - - - - -
01/05:00pm 14.5 W 10 13 1015.6 - 0.4 - - - - - - -
01/04:30pm 14.5 W 11 17 1015.5 - 0.4 - - - - - - -
01/04:00pm 15.3 WSW 13 15 1015.3 - 0.4 - - - - - - -
01/03:30pm 15.7 WSW 13 16 1015.0 - 0.4 - - - - - - -
01/03:00pm 15.6 WSW 15 18 1015.2 - 0.4 - - - - - - -
01/02:30pm 16.1 WSW 16 19 1014.9 - 0.4 - - - - - - -
01/02:00pm 16.0 WSW 17 22 1014.6 - 0.4 - - - - - - -
01/01:30pm 16.4 WSW 17 21 1014.4 - 0.4 - - - - - - -
01/01:00pm 15.8 WSW 16 21 1014.3 - 0.4 - - - - - - -
01/12:30pm 15.3 WSW 15 24 1014.5 - 0.4 - - - - - - -
01/12:20pm 14.8 WSW 15 28 1014.4 - 0.4 - - - - - - -
01/12:00pm 13.6 WSW 18 23 1014.5 - 0.4 Recent precip. - - - - - -
01/11:30am 13.9 WSW 18 24 1014.4 - 0.4 - - - - - - -
01/11:00am 15.2 WSW 16 21 1014.3 - 0.2 - - - - - - -
01/10:30am 15.4 WSW 18 24 1013.8 - 0.2 - - - - - - -
01/10:00am 14.7 WSW 18 26 1013.3 - 0.2 - - - - - - -
01/09:30am 12.2 WSW 21 30 1013.1 - 0.2 - - - - - - -
01/09:14am 14.6 WSW 20 31 1012.6 - 0.0 - - - - - - -
01/09:00am 14.2 W 20 27 1012.4 - 5.0 - - - - - - -
01/08:30am 13.7 WSW 20 28 1012.0 - 5.0 - - - - - - -
01/08:00am 11.8 WSW 17 21 1011.5 - 5.0 - - - - - - -
01/07:33am 12.4 W 23 37 1010.7 - 5.0 - - - - - - -
01/07:30am 11.9 W 21 27 1010.7 - 5.0 - - - - - - -
01/07:03am 10.0 W 25 37 1010.4 - 4.6 - - - - - - -
01/07:00am 10.4 W 23 37 1010.0 - 4.0 - - - - - - -
01/06:58am 11.5 W 21 37 1009.8 - 3.4 - - - - - - -
01/06:56am 13.1 W 18 28 1009.8 - 3.4 - - - - - - -
01/06:30am 12.4 W 17 21 1009.4 - 3.4 - - - - - - -
01/06:00am 12.3 WSW 20 25 1008.7 - 3.4 Recent precip. - - - - - -
01/05:30am 11.5 WSW 22 28 1007.7 - 3.4 - - - - - - -
01/05:00am 11.0 WSW 26 37 1007.6 - 2.6 - - - - - - -
01/04:58am 11.0 WSW 24 37 1007.5 - 2.6 - - - - - - -
01/04:55am 11.4 WSW 22 37 1007.1 - 2.6 - - - - - - -
01/04:53am 12.3 WSW 20 30 1007.1 - 2.2 - - - - - - -
01/04:30am 11.6 W 21 27 1006.7 - 2.2 - - - - - - -
01/04:03am 13.0 WNW 20 34 1006.0 - 1.0 - - - - - - -
01/04:00am 13.0 WNW 18 25 1006.0 - 1.0 - - - - - - -
01/03:30am 12.2 WNW 20 31 1005.2 - 1.0 - - - - - - -
01/03:29am 12.4 WNW 19 31 1005.2 - 1.0 - - - - - - -
01/03:28am 12.6 WNW 19 31 1005.2 - 1.0 - - - - - - -
01/03:00am 13.2 W 15 19 1005.1 - 1.0 Recent precip. - - - - - -
01/02:30am 12.8 WSW 17 23 1004.9 - 1.0 - - - - - - -
01/02:15am 12.7 WSW 20 30 1004.7 - 0.8 - - - - - - -
01/02:00am 13.1 W 25 33 1004.6 - 0.8 - - - - - - -
01/01:54am 13.4 W 22 33 1004.5 - 0.8 - - - - - - -
01/01:30am 13.9 W 21 28 1004.4 - 0.2 - - - - - - -
01/01:00am 13.4 WNW 18 24 1004.0 - 0.2 - - - - - - -
01/12:46am 14.1 WNW 22 32 1003.9 - 0.2 - - - - - - -
01/12:30am 14.6 WNW 19 26 1004.3 - 0.2 - - - - - - -
01/12:00am 14.2 WNW 21 26 1004.0 - 0.2 Rain - - - - - -
 
Date/Time
CST
Temp

°C
Wind Pressure Rain
since 9am
mm
Weather Cloud Vis
km
Sea
Height
m
Swell
Dir
 
Speed
knots
Gust
knots
hPa Trend Height
m
Period
s
Dir
30/11:34pm 14.5 W 27 37 1003.9 - 0.0 - - - - - - -
30/11:30pm 14.8 W 28 37 1004.0 - 0.0 - - - - - - -
30/11:00pm 14.9 WNW 28 44 1003.9 - 0.0 - - - - - - -
30/10:30pm 17.8 NW 25 36 1003.7 - 0.0 - - - - - - -
30/10:10pm 17.6 NNW 17 29 1003.6 - 0.0 - - - - - - -
30/10:00pm 17.5 NNW 15 20 1003.5 - 0.0 - - - - - - -
30/09:36pm 19.3 NW 19 29 1003.7 - 0.0 - - - - - - -
30/09:30pm 19.3 NW 17 24 1003.4 - 0.0 - - - - - - -
30/09:00pm 19.6 NW 16 22 1003.4 - 0.0 - - - - - - -
30/08:54pm 19.7 NW 15 22 1003.6 - 0.0 - - - - - - -
30/08:30pm 17.5 N 8 11 1003.6 - 0.0 - - - - - - -
30/08:00pm 17.4 N 10 13 1003.4 - 0.0 - - - - - - -
30/07:30pm 18.1 N 9 11 1003.9 - 0.0 - - - - - - -
30/07:00pm 18.4 N 10 12 1004.4 - 0.0 - - - - - - -
30/06:30pm 16.9 NNW 9 11 1004.8 - 0.0 - - - - - - -
30/06:00pm 17.1 N 8 11 1004.8 - 0.0 - - - - - - -
30/05:30pm 18.4 NNW 12 17 1005.0 - 0.0 - - - - - - -
30/05:00pm 18.8 N 12 15 1005.3 - 0.0 - - - - - - -
30/04:30pm 19.8 N 12 15 1005.5 - 0.0 - - - - - - -
30/04:00pm 20.6 N 13 17 1005.4 - 0.0 - - - - - - -
30/03:30pm 21.2 N 12 15 1005.6 - 0.0 - - - - - - -
30/03:00pm 21.3 N 12 15 1006.1 - 0.0 - - - - - - -
30/02:30pm 21.0 N 12 15 1006.7 - 0.0 - - - - - - -
30/02:00pm 20.3 N 13 17 1007.3 - 0.0 - - - - - - -
30/01:30pm 20.1 N 14 19 1007.8 - 0.0 - - - - - - -
30/01:00pm 19.7 N 17 21 1008.2 - 0.0 - - - - - - -
30/12:30pm 19.6 N 16 21 1009.1 - 0.0 - - - - - - -
30/12:00pm 19.2 N 15 19 1009.8 - 0.0 - - - - - - -
30/11:30am 18.8 N 15 20 1010.1 - 0.0 - - - - - - -
30/11:00am 18.8 N 15 20 1010.7 - 0.0 - - - - - - -
30/10:30am 18.6 NNW 16 20 1011.0 - 0.0 - - - - - - -
30/10:00am 17.9 N 15 20 1010.9 - 0.0 - - - - - - -
30/09:30am 17.3 N 15 19 1011.2 - 0.0 - - - - - - -
30/09:00am 16.7 N 14 17 1011.3 - 1.0 - - - - - - -
30/08:30am 16.4 N 13 18 1011.2 - 1.0 - - - - - - -
30/08:00am 16.6 N 10 13 1011.0 - 1.0 - - - - - - -
30/07:30am 16.0 NNW 10 12 1011.0 - 0.8 - - - - - - -
30/07:00am 15.3 N 10 12 1010.7 - 0.8 - - - - - - -
30/06:30am 15.3 N 10 13 1010.7 - 0.8 - - - - - - -
30/06:00am 15.1 N 9 11 1010.7 - 0.8 - - - - - - -
30/05:30am 15.4 N 9 11 1010.6 - 0.8 - - - - - - -
30/05:00am 15.4 N 9 11 1010.5 - 0.8 - - - - - - -
30/04:30am 15.1 N 8 10 1010.5 - 0.8 - - - - - - -
30/04:00am 15.1 N 8 10 1010.4 - 0.8 - - - - - - -
30/03:30am 15.1 N 8 10 1010.4 - 0.6 - - - - - - -
30/03:00am 15.2 NNW 8 9 1010.5 - 0.6 - - - - - - -
30/02:30am 14.9 NNW 7 8 1010.6 - 0.6 - - - - - - -
30/02:00am 15.2 NNW 7 9 1010.9 - 0.6 - - - - - - -
30/01:30am 15.1 NNW 7 9 1010.9 - 0.6 - - - - - - -
30/01:00am 15.2 N 7 9 1010.9 - 0.6 - - - - - - -
30/12:30am 15.4 N 8 11 1010.9 - 0.6 - - - - - - -
30/12:00am 15.3 N 9 12 1011.0 - 0.6 - - - - - - -
 
Date/Time
CST
Temp

°C
Wind Pressure Rain
since 9am
mm
Weather Cloud Vis
km
Sea
Height
m
Swell
Dir
 
Speed
knots
Gust
knots
hPa Trend Height
m
Period
s
Dir
29/11:30pm 13.8 NNE 4 8 1011.2 - 0.6 - - - - - - -
29/11:00pm 14.5 NNE 3 4 1011.3 - 0.6 - - - - - - -
29/10:30pm 14.5 NNE 5 6 1011.6 - 0.6 - - - - - - -
29/10:00pm 15.3 N 7 9 1011.8 - 0.6 - - - - - - -
29/09:30pm 15.3 N 7 8 1011.9 - 0.6 - - - - - - -
29/09:00pm 15.4 N 7 9 1012.0 - 0.6 - - - - - - -
29/08:30pm 14.9 N 7 8 1011.8 - 0.6 - - - - - - -
29/08:00pm 15.4 N 6 8 1011.7 - 0.6 - - - - - - -
29/07:30pm 15.6 N 6 8 1011.6 - 0.6 - - - - - - -
29/07:00pm 16.0 N 8 10 1011.4 - 0.6 - - - - - - -
29/06:30pm 15.7 N 8 10 1011.2 - 0.6 - - - - - - -
29/06:00pm 15.5 N 7 9 1011.2 - 0.6 - - - - - - -
29/05:30pm 15.8 N 8 10 1011.1 - 0.6 - - - - - - -
29/05:00pm 16.6 N 7 9 1011.0 - 0.6 - - - - - - -
29/04:30pm 17.2 N 9 12 1011.0 - 0.6 - - - - - - -
29/04:00pm 17.5 N 9 12 1010.8 - 0.6 - - - - - - -
29/03:30pm 17.8 N 11 15 1010.9 - 0.6 - - - - - - -

Other Formats:

Comma delimited format used in spreadsheet applications
http://www.bom.gov.au/fwo/IDS60701/IDS60701.94813.axf

JavaScript Object Notation format (JSON) in row-major order
http://www.bom.gov.au/fwo/IDS60701/IDS60701.94813.json